createdAt,value
2019-06-20T00:00:28.620Z,20.44
2019-06-20T00:03:43.866Z,20.28
2019-06-20T00:06:59.457Z,20.08
2019-06-20T00:10:14.706Z,19.93
2019-06-20T00:13:31.033Z,19.81
2019-06-20T00:16:46.500Z,19.76
2019-06-20T00:20:01.869Z,19.71
2019-06-20T00:23:16.985Z,19.69
2019-06-20T00:26:32.447Z,19.66
2019-06-20T00:29:47.963Z,19.62
2019-06-20T00:33:03.191Z,19.60
2019-06-20T00:36:18.310Z,19.57
2019-06-20T00:39:33.672Z,19.53
2019-06-20T00:42:48.771Z,19.49
2019-06-20T00:46:05.056Z,19.49
2019-06-20T00:49:20.148Z,19.46
2019-06-20T00:52:38.105Z,19.41
2019-06-20T00:55:53.239Z,19.40
2019-06-20T00:59:08.723Z,19.42
2019-06-20T01:02:24.059Z,19.41
2019-06-20T01:05:39.331Z,19.33
2019-06-20T01:08:54.423Z,19.29
2019-06-20T01:12:09.694Z,19.26
2019-06-20T01:15:24.930Z,19.23
2019-06-20T01:18:40.654Z,19.22
2019-06-20T01:21:56.876Z,19.25
2019-06-20T01:25:12.829Z,19.23
2019-06-20T01:28:28.302Z,19.21
2019-06-20T01:31:43.174Z,19.17
2019-06-20T01:34:58.659Z,19.17
2019-06-20T01:38:15.105Z,19.17
2019-06-20T01:41:30.563Z,19.13
2019-06-20T01:44:45.944Z,19.11
2019-06-20T01:48:01.280Z,19.08
2019-06-20T01:51:16.426Z,19.08
2019-06-20T01:54:31.831Z,19.06
2019-06-20T01:57:47.128Z,19.08
2019-06-20T02:01:02.867Z,19.06
2019-06-20T02:04:18.965Z,19.07
2019-06-20T02:07:34.078Z,19.09
2019-06-20T02:10:49.411Z,19.09
2019-06-20T02:14:07.445Z,19.02
2019-06-20T02:17:21.724Z,18.94
2019-06-20T02:20:37.919Z,18.91
2019-06-20T02:23:53.423Z,18.88
2019-06-20T02:27:09.490Z,18.89
2019-06-20T02:30:24.605Z,18.84
2019-06-20T02:33:40.206Z,18.84
2019-06-20T02:36:55.428Z,18.83
2019-06-20T02:40:11.529Z,18.82
2019-06-20T02:43:26.527Z,18.79
2019-06-20T02:46:42.975Z,18.80
2019-06-20T02:49:58.332Z,18.77
2019-06-20T02:53:13.931Z,18.74
2019-06-20T02:56:29.293Z,18.68
2019-06-20T02:59:45.833Z,18.66
2019-06-20T03:03:01.345Z,18.61
2019-06-20T03:06:17.636Z,18.60
2019-06-20T03:09:32.778Z,18.60
2019-06-20T03:12:48.960Z,18.58
2019-06-20T03:16:04.097Z,18.56
2019-06-20T03:19:19.474Z,18.51
2019-06-20T03:22:34.824Z,18.46
2019-06-20T03:25:49.952Z,18.44
2019-06-20T03:29:04.948Z,18.47
2019-06-20T03:32:19.962Z,18.44
2019-06-20T03:35:35.315Z,18.42
2019-06-20T03:38:51.883Z,18.40
2019-06-20T03:42:07.112Z,18.38
2019-06-20T03:45:22.454Z,18.35
2019-06-20T03:48:37.598Z,18.35
2019-06-20T03:51:52.605Z,18.29
2019-06-20T03:55:07.837Z,18.21
2019-06-20T03:58:23.561Z,18.16
2019-06-20T04:01:38.662Z,18.11
2019-06-20T04:04:53.805Z,18.09
2019-06-20T04:08:09.524Z,18.09
2019-06-20T04:11:25.852Z,18.08
2019-06-20T04:14:40.954Z,17.99
2019-06-20T04:17:55.983Z,17.93
2019-06-20T04:21:11.580Z,17.93
2019-06-20T04:24:28.045Z,17.91
2019-06-20T04:27:43.832Z,17.87
2019-06-20T04:31:00.274Z,17.86
2019-06-20T04:34:16.486Z,17.82
2019-06-20T04:37:31.837Z,17.80
2019-06-20T04:40:47.828Z,17.79
2019-06-20T04:44:03.429Z,17.80
2019-06-20T04:47:18.666Z,17.84
2019-06-20T04:50:34.330Z,17.84
2019-06-20T04:53:49.983Z,17.90
2019-06-20T04:57:05.204Z,17.92
2019-06-20T05:00:20.481Z,17.98
2019-06-20T05:03:35.950Z,18.06
2019-06-20T05:06:54.794Z,18.10
2019-06-20T05:10:10.530Z,18.18
2019-06-20T05:16:47.091Z,18.24
2019-06-20T05:20:05.237Z,18.21
2019-06-20T05:23:20.720Z,18.26
2019-06-20T05:26:35.815Z,18.34
2019-06-20T05:29:51.199Z,18.36
2019-06-20T05:33:06.700Z,18.46
2019-06-20T05:36:22.405Z,18.60
2019-06-20T05:39:37.641Z,18.64
2019-06-20T05:42:53.246Z,18.72
2019-06-20T05:46:11.148Z,18.80
2019-06-20T05:49:26.607Z,18.85
2019-06-20T05:52:46.416Z,18.91
2019-06-20T05:56:02.509Z,18.99
2019-06-20T05:59:18.585Z,19.01
2019-06-20T06:02:33.914Z,18.99
2019-06-20T06:05:49.065Z,18.95
2019-06-20T06:09:05.514Z,18.94
2019-06-20T06:12:20.979Z,18.96
2019-06-20T06:15:36.321Z,18.97
2019-06-20T06:18:51.836Z,19.01
2019-06-20T06:22:07.429Z,19.17
2019-06-20T06:25:22.770Z,19.23
2019-06-20T06:28:38.004Z,19.34
2019-06-20T06:31:54.102Z,19.38
2019-06-20T06:35:09.952Z,19.44
2019-06-20T06:38:25.890Z,19.47
2019-06-20T06:41:41.326Z,19.36
2019-06-20T06:44:56.399Z,19.43
2019-06-20T06:48:12.114Z,19.51
2019-06-20T06:51:27.363Z,19.74
2019-06-20T06:54:42.605Z,19.90
2019-06-20T06:57:58.657Z,19.99
2019-06-20T07:04:44.294Z,19.99
2019-06-20T07:07:59.647Z,20.05
2019-06-20T07:11:14.770Z,20.28
2019-06-20T07:14:30.754Z,20.42
2019-06-20T07:17:45.744Z,20.55
2019-06-20T07:21:00.972Z,20.60
2019-06-20T07:24:16.461Z,20.75
2019-06-20T07:27:31.573Z,20.83
2019-06-20T07:30:47.031Z,20.67
2019-06-20T07:34:03.343Z,20.73
2019-06-20T07:37:19.092Z,20.83
2019-06-20T07:40:34.237Z,20.91
2019-06-20T07:43:49.899Z,20.83
2019-06-20T07:47:17.058Z,20.80
2019-06-20T07:50:23.428Z,20.94
2019-06-20T07:53:39.746Z,21.19
2019-06-20T07:57:15.695Z,21.35
2019-06-20T08:00:31.351Z,21.30
2019-06-20T08:03:47.176Z,21.52
2019-06-20T08:07:02.794Z,21.67
2019-06-20T08:10:17.914Z,21.83
2019-06-20T08:13:33.283Z,22.18
2019-06-20T08:16:49.112Z,22.36
2019-06-20T08:20:04.613Z,22.37
2019-06-20T08:23:19.719Z,22.12
2019-06-20T08:26:34.847Z,22.18
2019-06-20T08:29:50.680Z,22.35
2019-06-20T08:33:11.510Z,22.31
2019-06-20T08:36:23.202Z,22.28
2019-06-20T08:39:38.684Z,22.53
2019-06-20T08:42:53.689Z,22.60
2019-06-20T08:46:10.393Z,22.57
2019-06-20T08:49:25.969Z,22.51
2019-06-20T08:52:41.575Z,22.47
2019-06-20T08:55:59.277Z,22.55
2019-06-20T08:59:24.365Z,22.78
2019-06-20T09:02:34.136Z,23.14
2019-06-20T09:05:50.345Z,23.17
2019-06-20T09:09:07.137Z,23.00
2019-06-20T09:12:22.380Z,23.07
2019-06-20T09:15:37.619Z,23.21
2019-06-20T09:18:53.750Z,23.19
2019-06-20T09:22:10.405Z,23.10
2019-06-20T09:25:25.870Z,23.00
2019-06-20T09:28:41.686Z,22.96
2019-06-20T09:31:58.419Z,23.05
2019-06-20T09:35:14.331Z,23.26
2019-06-20T09:38:29.841Z,23.39
2019-06-20T09:41:45.212Z,23.51
2019-06-20T09:45:02.949Z,23.47
2019-06-20T09:48:19.287Z,23.31
2019-06-20T09:51:34.976Z,23.23
2019-06-20T09:54:50.248Z,23.12
2019-06-20T09:58:05.734Z,23.16
2019-06-20T10:01:20.942Z,23.30
2019-06-20T10:04:36.330Z,23.49
2019-06-20T10:07:52.431Z,23.57
2019-06-20T10:11:08.585Z,23.50
2019-06-20T10:14:24.435Z,23.52
2019-06-20T10:17:39.578Z,24.05
2019-06-20T10:20:54.829Z,24.52
2019-06-20T10:24:10.192Z,24.61
2019-06-20T10:27:25.533Z,24.44
2019-06-20T10:30:41.653Z,24.32
2019-06-20T10:33:57.458Z,24.16
2019-06-20T10:37:12.556Z,24.26
2019-06-20T10:40:27.830Z,24.74
2019-06-20T10:43:44.687Z,24.80
2019-06-20T10:47:01.909Z,24.95
2019-06-20T10:50:17.413Z,25.06
2019-06-20T10:53:32.512Z,24.82
2019-06-20T10:56:48.847Z,24.45
2019-06-20T11:00:07.075Z,24.08
2019-06-20T11:03:22.672Z,24.11
2019-06-20T11:06:39.915Z,24.23
2019-06-20T11:09:55.705Z,24.42
2019-06-20T11:13:11.046Z,24.54
2019-06-20T11:16:26.406Z,24.51
2019-06-20T11:19:41.675Z,24.52
2019-06-20T11:22:57.250Z,24.38
2019-06-20T11:26:13.326Z,24.31
2019-06-20T11:29:28.690Z,24.07
2019-06-20T11:32:45.800Z,24.14
2019-06-20T11:36:01.448Z,24.27
2019-06-20T11:39:16.813Z,24.23
2019-06-20T11:42:32.289Z,24.21
2019-06-20T11:45:47.538Z,24.30
2019-06-20T11:49:03.255Z,24.48
2019-06-20T11:52:18.494Z,24.48
2019-06-20T11:55:34.818Z,24.37
2019-06-20T11:58:50.061Z,24.47
2019-06-20T12:02:07.339Z,24.51
2019-06-20T12:05:22.821Z,24.51
2019-06-20T12:08:39.125Z,24.42
2019-06-20T12:11:54.874Z,24.78
2019-06-20T12:16:48.676Z,25.38
2019-06-20T12:20:04.228Z,25.67
2019-06-20T12:23:19.357Z,25.70
2019-06-20T12:26:34.837Z,25.57
2019-06-20T12:29:50.194Z,25.04
2019-06-20T12:33:05.793Z,24.73
2019-06-20T12:36:21.040Z,24.41
2019-06-20T12:39:38.668Z,24.18
2019-06-20T12:42:54.157Z,23.80
2019-06-20T12:46:09.775Z,23.23
2019-06-20T12:49:25.243Z,22.77
2019-06-20T12:52:42.633Z,22.41
2019-06-20T12:55:58.866Z,22.21
2019-06-20T12:59:15.541Z,22.21
2019-06-20T13:02:31.135Z,22.28
2019-06-20T13:05:47.089Z,22.22
2019-06-20T13:09:04.381Z,22.65
2019-06-20T13:12:19.754Z,23.17
2019-06-20T13:15:35.216Z,23.53
2019-06-20T13:18:51.907Z,23.78
2019-06-20T13:22:07.142Z,24.14
2019-06-20T13:25:22.872Z,24.52
2019-06-20T13:28:58.546Z,24.42
2019-06-20T13:32:04.005Z,24.57
2019-06-20T13:35:13.973Z,24.67
2019-06-20T13:38:30.069Z,24.51
2019-06-20T13:41:45.791Z,24.52
2019-06-20T13:45:01.282Z,25.07
2019-06-20T13:48:16.875Z,25.25
2019-06-20T13:51:32.361Z,25.09
2019-06-20T13:54:48.321Z,25.35
2019-06-20T13:58:03.448Z,25.39
2019-06-20T14:01:18.714Z,25.57
2019-06-20T14:04:34.283Z,25.74
2019-06-20T14:07:53.347Z,25.90
2019-06-20T14:11:07.522Z,25.87
2019-06-20T14:14:23.004Z,26.34
2019-06-20T14:17:38.610Z,26.92
2019-06-20T14:20:55.224Z,26.92
2019-06-20T14:24:11.248Z,26.27
2019-06-20T14:27:26.844Z,26.27
2019-06-20T14:30:43.204Z,25.51
2019-06-20T14:33:59.373Z,25.19
2019-06-20T14:37:14.719Z,25.22
2019-06-20T14:40:30.226Z,25.25
2019-06-20T14:43:46.168Z,25.14
2019-06-20T14:47:02.987Z,24.88
2019-06-20T14:50:18.698Z,25.03
2019-06-20T14:53:34.040Z,25.30
2019-06-20T14:56:49.746Z,25.21
2019-06-20T15:00:07.219Z,25.02
2019-06-20T15:03:23.274Z,24.92
2019-06-20T15:06:39.258Z,24.91
2019-06-20T15:09:55.306Z,25.50
2019-06-20T15:13:10.538Z,25.64
2019-06-20T15:16:25.794Z,25.45
2019-06-20T15:19:41.159Z,25.40
2019-06-20T15:22:56.934Z,25.23
2019-06-20T15:26:12.620Z,24.98
2019-06-20T15:29:28.441Z,25.51
2019-06-20T15:32:55.685Z,25.95
2019-06-20T15:36:01.323Z,26.14
2019-06-20T15:39:19.570Z,25.78
2019-06-20T15:42:34.925Z,25.64
2019-06-20T15:45:51.995Z,26.22
2019-06-20T15:49:15.629Z,26.35
2019-06-20T15:52:24.856Z,25.99
2019-06-20T15:55:41.728Z,25.56
2019-06-20T15:58:57.121Z,25.40
2019-06-20T16:02:12.626Z,25.62
2019-06-20T16:05:28.218Z,26.23
2019-06-20T16:08:43.374Z,26.90
2019-06-20T16:11:59.058Z,26.90
2019-06-20T16:15:21.411Z,27.03
2019-06-20T16:18:36.861Z,27.21
2019-06-20T16:21:53.668Z,26.91
2019-06-20T16:25:08.677Z,26.60
2019-06-20T16:28:26.081Z,26.46
2019-06-20T16:31:41.310Z,26.44
2019-06-20T16:34:57.033Z,26.57
2019-06-20T16:38:12.390Z,26.53
2019-06-20T16:41:27.646Z,26.59
2019-06-20T16:44:42.759Z,26.24
2019-06-20T16:47:58.480Z,26.46
2019-06-20T16:51:13.613Z,26.62
2019-06-20T16:54:28.730Z,27.23
2019-06-20T16:57:43.988Z,27.23
2019-06-20T17:00:59.322Z,27.33
2019-06-20T17:04:15.165Z,27.43
2019-06-20T17:07:30.413Z,27.22
2019-06-20T17:10:45.662Z,26.71
2019-06-20T17:14:20.329Z,26.34
2019-06-20T17:17:55.736Z,25.72
2019-06-20T17:21:10.863Z,25.30
2019-06-20T17:24:27.553Z,24.88
2019-06-20T17:27:42.903Z,24.68
2019-06-20T17:30:58.632Z,24.83
2019-06-20T17:34:13.766Z,24.73
2019-06-20T17:37:29.108Z,24.76
2019-06-20T17:40:44.479Z,24.50
2019-06-20T17:43:59.939Z,24.24
2019-06-20T17:47:15.666Z,24.07
2019-06-20T17:50:31.656Z,23.90
2019-06-20T17:53:49.610Z,23.71
2019-06-20T17:57:04.180Z,23.62
2019-06-20T18:00:20.617Z,23.62
2019-06-20T18:03:37.512Z,23.56
2019-06-20T18:06:54.914Z,23.44
2019-06-20T18:10:13.525Z,23.27
2019-06-20T18:13:29.356Z,23.23
2019-06-20T18:16:44.474Z,23.37
2019-06-20T18:19:59.975Z,23.54
2019-06-20T18:23:15.086Z,23.55
2019-06-20T18:26:30.214Z,23.38
2019-06-20T18:29:47.485Z,23.40
2019-06-20T18:33:03.481Z,23.46
2019-06-20T18:36:18.808Z,23.21
2019-06-20T18:39:34.772Z,22.87
2019-06-20T18:42:50.649Z,22.58
2019-06-20T18:46:06.108Z,22.36
2019-06-20T18:49:21.334Z,22.06
2019-06-20T18:52:50.890Z,21.81
2019-06-20T18:55:53.644Z,21.63
2019-06-20T18:59:09.708Z,21.47
2019-06-20T19:02:25.473Z,21.31
2019-06-20T19:05:41.143Z,21.20
2019-06-20T19:08:56.381Z,21.16
2019-06-20T19:12:12.360Z,21.08
2019-06-20T19:15:27.582Z,20.97
2019-06-20T19:18:43.909Z,20.95
2019-06-20T19:21:59.962Z,20.88
2019-06-20T19:25:15.365Z,20.84
2019-06-20T19:28:30.723Z,20.80
2019-06-20T19:31:45.777Z,20.76
2019-06-20T19:35:02.789Z,20.72
2019-06-20T19:38:18.604Z,20.69
2019-06-20T19:41:33.597Z,20.65
2019-06-20T19:44:48.723Z,20.60
2019-06-20T19:48:04.897Z,20.51
2019-06-20T19:51:20.289Z,20.43
2019-06-20T19:54:35.377Z,20.37
2019-06-20T19:57:50.402Z,20.32
2019-06-20T20:01:06.637Z,20.20
2019-06-20T20:04:22.181Z,20.12
2019-06-20T20:07:37.424Z,20.04
2019-06-20T20:10:52.666Z,19.99
2019-06-20T20:14:08.287Z,19.94
2019-06-20T20:17:23.531Z,19.91
2019-06-20T20:20:38.781Z,19.86
2019-06-20T20:23:54.852Z,19.81
2019-06-20T20:27:10.110Z,19.77
2019-06-20T20:30:25.465Z,19.72
2019-06-20T20:33:40.699Z,19.68
2019-06-20T20:36:56.297Z,19.65
2019-06-20T20:40:11.423Z,19.54
2019-06-20T20:43:27.619Z,19.43
2019-06-20T20:46:44.161Z,19.33
2019-06-20T20:49:59.544Z,19.24
2019-06-20T20:53:14.789Z,19.17
2019-06-20T20:56:29.885Z,19.08
2019-06-20T20:59:45.486Z,19.03
2019-06-20T21:03:01.978Z,18.96
2019-06-20T21:06:18.036Z,18.92
2019-06-20T21:09:33.634Z,18.85
2019-06-20T21:16:47.793Z,18.66
2019-06-20T21:20:03.767Z,18.49
2019-06-20T21:23:19.961Z,18.42
2019-06-20T21:26:49.062Z,18.36
2019-06-20T21:29:53.323Z,18.30
2019-06-20T21:33:09.298Z,18.26
2019-06-20T21:36:24.411Z,18.18
2019-06-20T21:39:39.769Z,18.06
2019-06-20T21:42:55.006Z,17.93
2019-06-20T21:46:10.270Z,17.81
2019-06-20T21:49:25.372Z,17.76
2019-06-20T21:52:40.375Z,17.67
2019-06-20T21:55:55.855Z,17.62
2019-06-20T21:59:11.094Z,17.57
2019-06-20T22:02:27.274Z,17.54
2019-06-20T22:05:42.895Z,17.46
2019-06-20T22:08:58.504Z,17.35
2019-06-20T22:12:13.837Z,17.26
2019-06-20T22:15:28.981Z,17.16
2019-06-20T22:18:44.821Z,17.12
2019-06-20T22:22:00.070Z,17.07
2019-06-20T22:25:15.523Z,17.03
2019-06-20T22:28:30.669Z,16.99
2019-06-20T22:31:45.908Z,16.94
2019-06-20T22:35:01.128Z,16.88
2019-06-20T22:38:16.390Z,16.83
2019-06-20T22:41:31.722Z,16.76
2019-06-20T22:44:46.986Z,16.75
2019-06-20T22:48:03.893Z,16.68
2019-06-20T22:51:19.494Z,16.57
2019-06-20T22:54:34.501Z,16.55
2019-06-20T22:57:50.238Z,16.61
2019-06-20T23:01:05.607Z,16.70
2019-06-20T23:04:20.578Z,16.70
2019-06-20T23:07:35.961Z,16.68
2019-06-20T23:10:51.301Z,16.69
2019-06-20T23:14:06.565Z,16.73
2019-06-20T23:17:23.008Z,16.80
2019-06-20T23:20:38.489Z,16.84
2019-06-20T23:23:54.357Z,16.83
2019-06-20T23:27:09.810Z,16.84
2019-06-20T23:30:24.822Z,16.90
2019-06-20T23:33:40.180Z,16.95
2019-06-20T23:37:08.665Z,16.96
2019-06-20T23:40:14.861Z,16.97
2019-06-20T23:43:30.223Z,16.92
2019-06-20T23:46:45.676Z,16.91
2019-06-20T23:50:02.156Z,16.93
2019-06-20T23:53:21.463Z,16.93
2019-06-20T23:56:36.837Z,16.94
2019-06-20T23:59:52.073Z,16.93
